createdAt,value
2019-03-27T00:01:35.387Z,1.30
2019-03-27T00:04:02.692Z,1.22
2019-03-27T00:06:29.970Z,1.07
2019-03-27T00:08:57.300Z,0.75
2019-03-27T00:11:24.685Z,0.50
2019-03-27T00:13:52.309Z,0.80
2019-03-27T00:16:19.627Z,1.20
2019-03-27T00:18:46.869Z,0.90
2019-03-27T00:21:14.145Z,1.00
2019-03-27T00:23:41.696Z,2.05
2019-03-27T00:26:08.896Z,2.87
2019-03-27T00:28:36.107Z,4.85
2019-03-27T00:31:03.540Z,3.37
2019-03-27T00:33:30.821Z,2.20
2019-03-27T00:35:58.228Z,1.82
2019-03-27T00:38:25.592Z,1.50
2019-03-27T00:40:52.796Z,1.20
2019-03-27T00:43:19.997Z,0.90
2019-03-27T00:45:47.245Z,1.30
2019-03-27T00:48:14.441Z,0.80
2019-03-27T00:50:41.641Z,1.10
2019-03-27T00:53:09.591Z,1.00
2019-03-27T00:55:36.862Z,0.90
2019-03-27T00:58:04.064Z,0.70
2019-03-27T01:00:45.396Z,0.90
2019-03-27T01:03:12.597Z,1.22
2019-03-27T01:05:39.874Z,1.12
2019-03-27T01:08:07.737Z,1.70
2019-03-27T01:10:35.183Z,2.08
2019-03-27T01:13:02.727Z,1.50
2019-03-27T01:15:39.556Z,2.60
2019-03-27T01:17:59.055Z,2.45
2019-03-27T01:20:26.251Z,2.20
2019-03-27T01:22:53.620Z,2.08
2019-03-27T01:25:20.821Z,2.30
2019-03-27T01:27:48.016Z,2.90
2019-03-27T01:30:15.277Z,2.45
2019-03-27T01:32:42.474Z,2.60
2019-03-27T01:35:09.673Z,2.95
2019-03-27T01:37:37.015Z,3.67
2019-03-27T01:40:04.286Z,2.67
2019-03-27T01:42:31.560Z,2.80
2019-03-27T01:44:58.992Z,2.80
2019-03-27T01:47:26.264Z,2.37
2019-03-27T01:49:53.468Z,2.20
2019-03-27T01:52:21.332Z,1.90
2019-03-27T01:54:48.604Z,2.60
2019-03-27T01:57:15.810Z,3.58
2019-03-27T01:59:43.213Z,4.60
2019-03-27T02:02:10.421Z,4.40
2019-03-27T02:04:37.619Z,4.40
2019-03-27T02:07:04.933Z,5.47
2019-03-27T02:09:32.145Z,6.80
2019-03-27T02:11:59.552Z,6.20
2019-03-27T02:14:26.901Z,6.33
2019-03-27T02:16:54.477Z,6.47
2019-03-27T02:19:22.138Z,6.10
2019-03-27T02:21:49.918Z,11.05
2019-03-27T02:24:17.193Z,11.95
2019-03-27T02:26:44.601Z,13.32
2019-03-27T02:29:12.030Z,10.08
2019-03-27T02:31:39.314Z,9.40
2019-03-27T02:34:06.605Z,14.70
2019-03-27T02:36:33.921Z,9.75
2019-03-27T02:39:01.202Z,10.13
2019-03-27T02:41:28.499Z,8.95
2019-03-27T02:43:55.989Z,6.78
2019-03-27T02:46:25.023Z,6.65
2019-03-27T02:48:52.193Z,7.42
2019-03-27T02:51:19.809Z,7.00
2019-03-27T02:53:47.090Z,5.22
2019-03-27T02:56:14.367Z,5.10
2019-03-27T02:58:41.994Z,4.08
2019-03-27T03:01:09.329Z,3.12
2019-03-27T03:03:36.636Z,3.45
2019-03-27T03:06:04.121Z,5.03
2019-03-27T03:08:31.320Z,4.72
2019-03-27T03:10:58.706Z,4.33
2019-03-27T03:13:26.011Z,3.75
2019-03-27T03:15:53.293Z,3.10
2019-03-27T03:18:20.497Z,5.15
2019-03-27T03:20:47.856Z,5.15
2019-03-27T03:23:15.642Z,4.20
2019-03-27T03:25:42.921Z,3.92
2019-03-27T03:28:10.611Z,5.20
2019-03-27T03:30:37.901Z,5.00
2019-03-27T03:33:05.198Z,7.15
2019-03-27T03:35:32.881Z,6.45
2019-03-27T03:38:00.164Z,9.28
2019-03-27T03:40:27.455Z,9.23
2019-03-27T03:42:54.771Z,7.67
2019-03-27T03:45:22.045Z,7.62
2019-03-27T03:47:49.321Z,9.23
2019-03-27T03:50:36.897Z,6.53
2019-03-27T03:53:04.861Z,5.95
2019-03-27T03:55:32.284Z,6.03
2019-03-27T03:57:59.526Z,6.53
2019-03-27T04:00:26.819Z,4.62
2019-03-27T04:02:54.078Z,4.30
2019-03-27T04:05:21.922Z,3.80
2019-03-27T04:07:49.214Z,3.90
2019-03-27T04:10:16.491Z,4.27
2019-03-27T04:12:44.000Z,3.67
2019-03-27T04:15:11.594Z,3.50
2019-03-27T04:17:38.818Z,3.67
2019-03-27T04:20:06.717Z,3.62
2019-03-27T04:22:33.916Z,3.10
2019-03-27T04:25:01.225Z,4.67
2019-03-27T04:27:28.538Z,2.92
2019-03-27T04:29:55.817Z,2.45
2019-03-27T04:32:23.097Z,1.55
2019-03-27T04:34:50.760Z,1.40
2019-03-27T04:37:17.966Z,3.20
2019-03-27T04:39:45.245Z,4.55
2019-03-27T04:42:12.648Z,4.70
2019-03-27T04:44:39.847Z,3.45
2019-03-27T04:47:07.117Z,4.45
2019-03-27T04:49:34.508Z,2.87
2019-03-27T04:52:01.705Z,1.77
2019-03-27T04:54:29.229Z,2.60
2019-03-27T04:56:56.500Z,2.47
2019-03-27T04:59:23.714Z,2.08
2019-03-27T05:01:50.987Z,2.10
2019-03-27T05:04:18.800Z,1.95
2019-03-27T05:06:46.003Z,1.25
2019-03-27T05:09:13.382Z,1.62
2019-03-27T05:11:40.708Z,2.30
2019-03-27T05:14:07.980Z,1.10
2019-03-27T05:16:35.338Z,1.00
2019-03-27T05:19:02.617Z,1.32
2019-03-27T05:21:29.972Z,0.70
2019-03-27T05:23:57.212Z,0.70
2019-03-27T05:26:24.517Z,0.78
2019-03-27T05:28:51.939Z,0.75
2019-03-27T05:31:19.236Z,1.10
2019-03-27T05:33:46.433Z,0.70
2019-03-27T05:36:13.662Z,0.98
2019-03-27T05:38:40.862Z,0.65
2019-03-27T05:41:08.152Z,0.60
2019-03-27T05:43:35.356Z,0.70
2019-03-27T05:46:02.710Z,1.00
2019-03-27T05:48:29.981Z,1.20
2019-03-27T05:50:57.209Z,1.40
2019-03-27T05:53:24.520Z,1.55
2019-03-27T05:55:51.740Z,1.60
2019-03-27T05:58:18.937Z,1.75
2019-03-27T06:00:46.242Z,2.35
2019-03-27T06:03:13.436Z,2.10
2019-03-27T06:05:40.688Z,2.60
2019-03-27T06:08:07.884Z,2.00
2019-03-27T06:10:35.083Z,2.72
2019-03-27T06:13:02.381Z,2.65
2019-03-27T06:15:29.576Z,2.37
2019-03-27T06:17:56.801Z,2.50
2019-03-27T06:20:24.005Z,2.77
2019-03-27T06:22:51.228Z,2.60
2019-03-27T06:25:18.431Z,2.37
2019-03-27T06:27:45.676Z,2.00
2019-03-27T06:30:12.947Z,1.73
2019-03-27T06:32:40.253Z,1.40
2019-03-27T06:35:07.877Z,1.72
2019-03-27T06:37:35.173Z,4.87
2019-03-27T06:40:02.372Z,8.63
2019-03-27T06:42:29.784Z,7.33
2019-03-27T06:44:57.382Z,6.72
2019-03-27T06:47:24.714Z,4.70
2019-03-27T06:49:51.913Z,4.85
2019-03-27T06:52:19.402Z,5.17
2019-03-27T06:54:46.672Z,4.42
2019-03-27T06:57:13.991Z,3.98
2019-03-27T06:59:41.199Z,2.60
2019-03-27T07:02:08.672Z,2.58
2019-03-27T07:04:36.584Z,3.12
2019-03-27T07:07:03.812Z,2.98
2019-03-27T07:09:31.170Z,2.95
2019-03-27T07:11:58.454Z,3.62
2019-03-27T07:14:25.801Z,3.27
2019-03-27T07:16:53.008Z,3.65
2019-03-27T07:19:20.216Z,6.05
2019-03-27T07:21:47.456Z,6.20
2019-03-27T07:24:14.769Z,7.40
2019-03-27T07:26:42.080Z,5.42
2019-03-27T07:29:09.375Z,4.72
2019-03-27T07:31:36.678Z,4.25
2019-03-27T07:34:03.951Z,2.75
2019-03-27T07:36:31.266Z,3.10
2019-03-27T07:39:10.473Z,3.05
2019-03-27T07:41:27.422Z,3.02
2019-03-27T07:43:54.824Z,3.20
2019-03-27T07:46:22.112Z,3.75
2019-03-27T07:48:54.163Z,2.10
2019-03-27T07:51:18.285Z,1.90
2019-03-27T07:53:45.552Z,2.20
2019-03-27T07:56:12.861Z,2.55
2019-03-27T07:58:40.060Z,2.08
2019-03-27T08:01:07.626Z,3.30
2019-03-27T08:03:34.922Z,2.87
2019-03-27T08:06:02.189Z,3.17
2019-03-27T08:08:29.421Z,2.33
2019-03-27T08:10:56.625Z,4.65
2019-03-27T08:13:23.872Z,5.37
2019-03-27T08:15:51.082Z,4.62
2019-03-27T08:18:18.768Z,5.62
2019-03-27T08:20:46.158Z,4.78
2019-03-27T08:23:13.392Z,4.55
2019-03-27T08:25:40.668Z,5.70
2019-03-27T08:28:08.307Z,5.47
2019-03-27T08:30:35.685Z,4.35
2019-03-27T08:33:02.992Z,3.40
2019-03-27T08:35:30.190Z,4.03
2019-03-27T08:37:57.490Z,3.87
2019-03-27T08:40:24.770Z,3.40
2019-03-27T08:42:52.074Z,3.42
2019-03-27T08:45:19.282Z,5.00
2019-03-27T08:47:46.521Z,4.20
2019-03-27T08:50:13.865Z,4.00
2019-03-27T08:52:41.111Z,8.38
2019-03-27T08:55:08.387Z,9.25
2019-03-27T08:57:35.665Z,5.67
2019-03-27T09:00:03.213Z,4.65
2019-03-27T09:02:30.440Z,7.25
2019-03-27T09:04:57.641Z,8.43
2019-03-27T09:07:24.852Z,6.17
2019-03-27T09:09:52.254Z,8.83
2019-03-27T09:12:19.530Z,6.83
2019-03-27T09:14:47.078Z,9.25
2019-03-27T09:17:14.360Z,11.73
2019-03-27T09:19:41.594Z,8.75
2019-03-27T09:22:08.863Z,5.85
2019-03-27T09:24:36.397Z,5.75
2019-03-27T09:27:03.681Z,5.47
2019-03-27T09:29:30.920Z,5.10
2019-03-27T09:31:58.188Z,3.90
2019-03-27T09:34:25.412Z,3.65
2019-03-27T09:36:52.608Z,3.83
2019-03-27T09:39:19.831Z,3.20
2019-03-27T09:41:47.044Z,4.33
2019-03-27T09:44:14.348Z,3.12
2019-03-27T09:46:41.544Z,2.55
2019-03-27T09:49:08.781Z,2.62
2019-03-27T09:51:36.052Z,2.80
2019-03-27T09:54:03.273Z,2.02
2019-03-27T09:56:30.487Z,3.42
2019-03-27T09:58:57.792Z,3.17
2019-03-27T10:01:25.065Z,3.35
2019-03-27T10:03:52.716Z,4.67
2019-03-27T10:06:20.000Z,5.28
2019-03-27T10:08:47.688Z,6.33
2019-03-27T10:11:14.883Z,4.10
2019-03-27T10:13:42.157Z,4.15
2019-03-27T10:16:09.747Z,3.40
2019-03-27T10:18:36.973Z,4.28
2019-03-27T10:21:04.169Z,4.03
2019-03-27T10:23:31.593Z,5.60
2019-03-27T10:25:58.793Z,5.42
2019-03-27T10:28:26.732Z,4.65
2019-03-27T10:30:53.963Z,4.42
2019-03-27T10:33:21.936Z,7.78
2019-03-27T10:35:49.173Z,5.50
2019-03-27T10:38:16.448Z,7.78
2019-03-27T10:40:43.681Z,7.58
2019-03-27T10:43:11.171Z,6.15
2019-03-27T10:45:38.472Z,4.62
2019-03-27T10:48:05.680Z,5.00
2019-03-27T10:50:33.085Z,4.60
2019-03-27T10:53:00.349Z,4.85
2019-03-27T10:55:27.592Z,3.80
2019-03-27T10:57:54.852Z,3.40
2019-03-27T11:00:22.215Z,3.73
2019-03-27T11:02:49.492Z,3.85
2019-03-27T11:05:16.789Z,2.92
2019-03-27T11:07:43.988Z,2.65
2019-03-27T11:10:11.219Z,6.03
2019-03-27T11:12:38.496Z,4.22
2019-03-27T11:15:06.464Z,3.67
2019-03-27T11:17:33.728Z,3.80
2019-03-27T11:20:00.942Z,2.80
2019-03-27T11:22:28.236Z,2.30
2019-03-27T11:24:55.526Z,2.80
2019-03-27T11:27:22.829Z,3.20
2019-03-27T11:29:50.096Z,2.83
2019-03-27T11:32:17.317Z,2.70
2019-03-27T11:34:44.689Z,4.00
2019-03-27T11:37:12.279Z,3.83
2019-03-27T11:39:39.545Z,4.42
2019-03-27T11:42:06.772Z,3.42
2019-03-27T11:44:33.974Z,4.70
2019-03-27T11:47:01.197Z,4.28
2019-03-27T11:49:28.508Z,5.12
2019-03-27T11:51:55.738Z,3.87
2019-03-27T11:54:22.936Z,3.40
2019-03-27T11:56:50.162Z,3.62
2019-03-27T11:59:17.357Z,4.47
2019-03-27T12:01:44.688Z,4.05
2019-03-27T12:04:11.965Z,3.10
2019-03-27T12:06:39.261Z,2.42
2019-03-27T12:09:07.031Z,2.58
2019-03-27T12:11:34.341Z,3.00
2019-03-27T12:14:01.541Z,3.30
2019-03-27T12:16:28.792Z,2.67
2019-03-27T12:18:56.062Z,3.85
2019-03-27T12:21:23.387Z,2.70
2019-03-27T12:23:50.632Z,3.00
2019-03-27T12:26:17.837Z,2.98
2019-03-27T12:28:45.056Z,2.72
2019-03-27T12:31:12.260Z,2.80
2019-03-27T12:33:39.561Z,3.17
2019-03-27T12:36:06.825Z,4.28
2019-03-27T12:38:34.120Z,3.58
2019-03-27T12:41:01.321Z,4.60
2019-03-27T12:43:28.625Z,4.90
2019-03-27T12:45:55.892Z,4.37
2019-03-27T12:48:23.126Z,3.30
2019-03-27T12:50:50.392Z,3.42
2019-03-27T12:53:17.616Z,2.98
2019-03-27T12:55:44.817Z,2.77
2019-03-27T12:58:12.041Z,2.10
2019-03-27T13:00:39.245Z,2.10
2019-03-27T13:03:06.868Z,3.65
2019-03-27T13:05:34.141Z,3.33
2019-03-27T13:08:01.373Z,3.42
2019-03-27T13:10:28.642Z,5.67
2019-03-27T13:12:55.940Z,3.50
2019-03-27T13:15:23.534Z,3.58
2019-03-27T13:17:50.848Z,4.70
2019-03-27T13:20:18.107Z,4.22
2019-03-27T13:22:45.313Z,4.47
2019-03-27T13:25:12.608Z,4.50
2019-03-27T13:27:39.885Z,4.08
2019-03-27T13:30:07.618Z,3.95
2019-03-27T13:32:34.880Z,4.33
2019-03-27T13:35:02.139Z,8.28
2019-03-27T13:37:29.402Z,6.50
2019-03-27T13:39:59.772Z,6.67
2019-03-27T13:42:25.645Z,5.67
2019-03-27T13:44:52.945Z,4.40
2019-03-27T13:47:20.212Z,4.65
2019-03-27T13:49:47.448Z,3.67
2019-03-27T13:52:14.817Z,3.17
2019-03-27T13:54:42.044Z,3.10
2019-03-27T13:57:09.254Z,3.35
2019-03-27T13:59:36.554Z,3.72
2019-03-27T14:02:03.918Z,13.13
2019-03-27T14:04:31.226Z,13.22
2019-03-27T14:06:58.441Z,12.55
2019-03-27T14:09:25.681Z,9.63
2019-03-27T14:11:52.965Z,8.65
2019-03-27T14:14:20.378Z,8.10
2019-03-27T14:16:47.648Z,7.10
2019-03-27T14:19:14.889Z,6.20
2019-03-27T14:21:53.761Z,5.55
2019-03-27T14:24:11.042Z,5.62
2019-03-27T14:26:45.035Z,4.30
2019-03-27T14:29:07.587Z,4.50
2019-03-27T14:31:34.862Z,3.90
2019-03-27T14:34:02.071Z,3.98
2019-03-27T14:36:29.374Z,5.60
2019-03-27T14:38:56.609Z,6.50
2019-03-27T14:41:24.198Z,9.28
2019-03-27T14:43:51.745Z,7.47
2019-03-27T14:46:18.975Z,5.95
2019-03-27T14:48:46.321Z,6.47
2019-03-27T14:51:13.665Z,6.72
2019-03-27T14:53:40.939Z,8.18
2019-03-27T14:56:08.348Z,9.20
2019-03-27T14:58:35.557Z,7.72
2019-03-27T15:01:02.781Z,6.22
2019-03-27T15:03:30.055Z,3.95
2019-03-27T15:05:57.285Z,3.87
2019-03-27T15:08:24.484Z,5.35
2019-03-27T15:10:51.744Z,5.50
2019-03-27T15:13:18.986Z,5.08
2019-03-27T15:15:46.279Z,3.42
2019-03-27T15:18:13.478Z,3.58
2019-03-27T15:20:40.709Z,3.40
2019-03-27T15:23:07.928Z,3.02
2019-03-27T15:25:35.218Z,4.30
2019-03-27T15:28:02.417Z,6.45
2019-03-27T15:30:29.659Z,4.97
2019-03-27T15:32:57.273Z,4.47
2019-03-27T15:35:24.468Z,6.03
2019-03-27T15:37:51.701Z,6.35
2019-03-27T15:40:20.614Z,6.30
2019-03-27T15:42:47.985Z,7.67
2019-03-27T15:45:15.298Z,6.03
2019-03-27T15:47:42.613Z,6.65
2019-03-27T15:50:09.916Z,7.05
2019-03-27T15:52:37.445Z,8.00
2019-03-27T15:55:05.264Z,6.67
2019-03-27T15:57:32.488Z,6.12
2019-03-27T15:59:59.692Z,6.60
2019-03-27T16:02:26.924Z,6.37
2019-03-27T16:04:54.125Z,5.55
2019-03-27T16:07:21.430Z,4.92
2019-03-27T16:09:48.697Z,3.75
2019-03-27T16:12:16.260Z,3.30
2019-03-27T16:14:43.461Z,3.52
2019-03-27T16:17:13.723Z,3.60
2019-03-27T16:19:39.964Z,3.10
2019-03-27T16:22:07.196Z,4.00
2019-03-27T16:24:34.394Z,4.30
2019-03-27T16:27:04.671Z,3.08
2019-03-27T16:29:30.626Z,2.50
2019-03-27T16:31:57.855Z,2.72
2019-03-27T16:34:25.451Z,2.83
2019-03-27T16:36:54.305Z,2.65
2019-03-27T16:39:22.587Z,2.42
2019-03-27T16:41:49.881Z,1.92
2019-03-27T16:44:17.104Z,4.95
2019-03-27T16:46:44.377Z,4.85
2019-03-27T16:49:11.849Z,3.20
2019-03-27T16:51:39.176Z,4.45
2019-03-27T16:54:06.472Z,4.10
2019-03-27T16:56:33.744Z,3.62
2019-03-27T16:59:01.047Z,3.15
2019-03-27T17:01:28.428Z,3.10
2019-03-27T17:03:55.780Z,2.83
2019-03-27T17:06:22.984Z,2.70
2019-03-27T17:08:50.236Z,2.90
2019-03-27T17:11:17.528Z,2.50
2019-03-27T17:13:44.801Z,2.15
2019-03-27T17:16:12.027Z,1.62
2019-03-27T17:18:39.441Z,1.50
2019-03-27T17:21:06.801Z,1.80
2019-03-27T17:23:34.188Z,2.00
2019-03-27T17:26:01.449Z,2.25
2019-03-27T17:28:28.756Z,1.85
2019-03-27T17:30:56.235Z,2.10
2019-03-27T17:33:23.543Z,2.00
2019-03-27T17:35:50.797Z,1.70
2019-03-27T17:38:18.023Z,1.35
2019-03-27T17:40:45.296Z,1.40
2019-03-27T17:43:12.682Z,1.30
2019-03-27T17:45:40.186Z,1.45
2019-03-27T17:48:07.465Z,1.37
2019-03-27T17:50:34.703Z,1.80
2019-03-27T17:53:01.970Z,1.40
2019-03-27T17:55:29.200Z,1.77
2019-03-27T17:57:56.721Z,2.00
2019-03-27T18:00:42.021Z,2.30
2019-03-27T18:03:09.232Z,2.20
2019-03-27T18:05:38.657Z,2.02
2019-03-27T18:08:05.519Z,2.40
2019-03-27T18:10:33.100Z,2.40
2019-03-27T18:13:00.311Z,2.50
2019-03-27T18:15:27.604Z,2.87
2019-03-27T18:17:54.878Z,2.55
2019-03-27T18:20:22.105Z,2.42
2019-03-27T18:22:49.384Z,2.75
2019-03-27T18:25:16.608Z,2.77
2019-03-27T18:27:43.811Z,2.37
2019-03-27T18:30:11.634Z,2.98
2019-03-27T18:32:39.034Z,2.87
2019-03-27T18:35:06.390Z,3.30
2019-03-27T18:37:33.743Z,2.83
2019-03-27T18:40:00.983Z,5.05
2019-03-27T18:42:28.259Z,3.62
2019-03-27T18:44:55.736Z,3.12
2019-03-27T18:47:23.009Z,3.12
2019-03-27T18:49:50.245Z,3.12
2019-03-27T18:52:17.450Z,3.95
2019-03-27T18:54:44.671Z,3.50
2019-03-27T18:57:11.873Z,4.80
2019-03-27T18:59:39.141Z,5.08
2019-03-27T19:02:06.371Z,4.75
2019-03-27T19:04:33.649Z,5.87
2019-03-27T19:07:00.874Z,4.87
2019-03-27T19:09:28.073Z,4.80
2019-03-27T19:11:55.306Z,4.85
2019-03-27T19:14:22.576Z,3.95
2019-03-27T19:16:49.813Z,4.20
2019-03-27T19:19:17.180Z,4.08
2019-03-27T19:21:44.408Z,4.92
2019-03-27T19:24:16.348Z,5.83
2019-03-27T19:26:40.637Z,6.80
2019-03-27T19:29:07.916Z,6.75
2019-03-27T19:31:35.145Z,6.72
2019-03-27T19:34:02.414Z,5.60
2019-03-27T19:36:29.761Z,5.80
2019-03-27T19:38:56.963Z,5.12
2019-03-27T19:41:24.268Z,5.40
2019-03-27T19:43:51.530Z,5.00
2019-03-27T19:46:18.833Z,3.92
2019-03-27T19:48:46.105Z,4.58
2019-03-27T19:51:13.504Z,3.52
2019-03-27T19:53:40.773Z,3.47
2019-03-27T19:56:08.001Z,4.00
2019-03-27T19:58:35.200Z,4.67
2019-03-27T20:01:02.424Z,3.37
2019-03-27T20:03:29.628Z,3.87
2019-03-27T20:05:56.829Z,4.65
2019-03-27T20:08:24.056Z,4.72
2019-03-27T20:10:51.259Z,4.40
2019-03-27T20:13:18.663Z,4.30
2019-03-27T20:15:45.943Z,4.28
2019-03-27T20:18:13.228Z,4.47
2019-03-27T20:20:40.429Z,4.67
2019-03-27T20:23:14.859Z,4.20
2019-03-27T20:25:37.236Z,3.60
2019-03-27T20:28:04.432Z,3.12
2019-03-27T20:30:32.100Z,4.42
2019-03-27T20:32:59.301Z,5.58
2019-03-27T20:35:26.491Z,6.05
2019-03-27T20:37:53.963Z,5.58
2019-03-27T20:40:21.167Z,4.97
2019-03-27T20:42:48.445Z,4.75
2019-03-27T20:45:15.749Z,4.42
2019-03-27T20:47:42.950Z,4.92
2019-03-27T20:50:10.217Z,4.30
2019-03-27T20:52:37.480Z,4.72
2019-03-27T20:55:05.100Z,4.65
2019-03-27T20:57:32.329Z,4.62
2019-03-27T20:59:59.524Z,3.90
2019-03-27T21:02:26.745Z,5.25
2019-03-27T21:04:54.049Z,4.78
2019-03-27T21:07:24.391Z,5.72
2019-03-27T21:09:53.202Z,6.33
2019-03-27T21:12:19.143Z,6.97
2019-03-27T21:14:46.447Z,4.70
2019-03-27T21:17:13.655Z,5.78
2019-03-27T21:19:40.960Z,6.35
2019-03-27T21:22:08.228Z,5.97
2019-03-27T21:24:35.520Z,5.72
2019-03-27T21:27:02.724Z,6.03
2019-03-27T21:29:30.068Z,5.28
2019-03-27T21:31:57.272Z,6.65
2019-03-27T21:34:24.505Z,6.87
2019-03-27T21:36:52.036Z,7.78
2019-03-27T21:39:19.332Z,5.95
2019-03-27T21:41:46.533Z,5.55
2019-03-27T21:44:13.788Z,6.55
2019-03-27T21:46:41.158Z,7.22
2019-03-27T21:49:08.792Z,8.15
2019-03-27T21:51:36.005Z,9.68
2019-03-27T21:54:03.308Z,8.35
2019-03-27T21:56:30.502Z,6.22
2019-03-27T21:58:57.723Z,6.37
2019-03-27T22:01:24.989Z,6.65
2019-03-27T22:03:52.261Z,5.08
2019-03-27T22:06:19.488Z,4.55
2019-03-27T22:08:46.716Z,7.33
2019-03-27T22:11:13.916Z,4.83
2019-03-27T22:13:41.200Z,4.58
2019-03-27T22:16:08.442Z,6.22
2019-03-27T22:18:35.709Z,4.75
2019-03-27T22:21:03.011Z,5.67
2019-03-27T22:23:30.285Z,4.50
2019-03-27T22:25:57.642Z,4.62
2019-03-27T22:28:24.855Z,4.28
2019-03-27T22:30:52.150Z,3.83
2019-03-27T22:33:19.352Z,3.45
2019-03-27T22:35:46.650Z,4.03
2019-03-27T22:38:13.920Z,3.40
2019-03-27T22:40:41.149Z,3.08
2019-03-27T22:43:08.348Z,2.47
2019-03-27T22:45:35.582Z,2.40
2019-03-27T22:48:02.845Z,2.08
2019-03-27T22:50:30.145Z,1.80
2019-03-27T22:52:57.425Z,2.05
2019-03-27T22:55:24.648Z,2.03
2019-03-27T22:57:51.892Z,2.08
2019-03-27T23:00:20.754Z,1.73
2019-03-27T23:02:47.952Z,1.67
2019-03-27T23:05:15.254Z,2.20
2019-03-27T23:07:42.453Z,2.00
2019-03-27T23:10:09.685Z,1.57
2019-03-27T23:12:37.012Z,1.80
2019-03-27T23:15:08.832Z,1.60
2019-03-27T23:17:36.095Z,2.30
2019-03-27T23:20:05.080Z,2.08
2019-03-27T23:22:32.305Z,3.10
2019-03-27T23:24:59.505Z,4.10
2019-03-27T23:27:26.743Z,3.20
2019-03-27T23:29:53.941Z,2.20
2019-03-27T23:32:21.244Z,1.55
2019-03-27T23:34:48.451Z,1.57
2019-03-27T23:37:15.838Z,1.30
2019-03-27T23:39:43.038Z,1.77
2019-03-27T23:42:10.236Z,2.15
2019-03-27T23:44:37.528Z,2.65
2019-03-27T23:47:05.231Z,2.37
2019-03-27T23:49:32.641Z,2.22
2019-03-27T23:51:59.856Z,2.17
2019-03-27T23:54:27.086Z,2.35
2019-03-27T23:56:54.364Z,2.20
2019-03-27T23:59:22.025Z,2.75
